sensor_id;sensor_type;location;lat;lon;timestamp;P1;durP1;ratioP1;P2;durP2;ratioP2
25049;SDS011;13046;49.814;9.918;2022-10-16T00:00:46;2.72;;;2.30;;
25049;SDS011;13046;49.814;9.918;2022-10-16T00:03:12;4.68;;;1.80;;
25049;SDS011;13046;49.814;9.918;2022-10-16T00:05:39;1.42;;;1.33;;
25049;SDS011;13046;49.814;9.918;2022-10-16T00:08:06;3.50;;;1.80;;
25049;SDS011;13046;49.814;9.918;2022-10-16T00:10:32;3.30;;;2.00;;
25049;SDS011;13046;49.814;9.918;2022-10-16T00:12:58;2.00;;;1.80;;
25049;SDS011;13046;49.814;9.918;2022-10-16T00:15:24;2.95;;;2.67;;
25049;SDS011;13046;49.814;9.918;2022-10-16T00:17:50;5.03;;;2.05;;
25049;SDS011;13046;49.814;9.918;2022-10-16T00:20:16;4.22;;;2.45;;
25049;SDS011;13046;49.814;9.918;2022-10-16T00:22:42;2.53;;;2.10;;
25049;SDS011;13046;49.814;9.918;2022-10-16T00:25:08;5.07;;;2.45;;
25049;SDS011;13046;49.814;9.918;2022-10-16T00:27:34;3.72;;;2.40;;
25049;SDS011;13046;49.814;9.918;2022-10-16T00:30:01;3.65;;;2.45;;
25049;SDS011;13046;49.814;9.918;2022-10-16T00:32:27;7.53;;;3.03;;
25049;SDS011;13046;49.814;9.918;2022-10-16T00:34:53;3.65;;;2.50;;
25049;SDS011;13046;49.814;9.918;2022-10-16T00:37:22;2.13;;;1.95;;
25049;SDS011;13046;49.814;9.918;2022-10-16T00:39:48;5.97;;;2.70;;
25049;SDS011;13046;49.814;9.918;2022-10-16T00:42:15;4.78;;;2.58;;
25049;SDS011;13046;49.814;9.918;2022-10-16T00:47:09;4.82;;;3.00;;
25049;SDS011;13046;49.814;9.918;2022-10-16T00:49:35;4.13;;;2.20;;
25049;SDS011;13046;49.814;9.918;2022-10-16T00:52:01;3.38;;;2.83;;
25049;SDS011;13046;49.814;9.918;2022-10-16T00:54:29;5.60;;;3.22;;
25049;SDS011;13046;49.814;9.918;2022-10-16T00:56:56;3.45;;;2.42;;
25049;SDS011;13046;49.814;9.918;2022-10-16T00:59:24;4.57;;;2.80;;
25049;SDS011;13046;49.814;9.918;2022-10-16T01:01:51;4.15;;;2.25;;
25049;SDS011;13046;49.814;9.918;2022-10-16T01:04:17;6.28;;;2.47;;
25049;SDS011;13046;49.814;9.918;2022-10-16T01:09:23;2.80;;;2.20;;
25049;SDS011;13046;49.814;9.918;2022-10-16T01:14:26;3.83;;;2.55;;
25049;SDS011;13046;49.814;9.918;2022-10-16T01:16:55;2.90;;;2.70;;
25049;SDS011;13046;49.814;9.918;2022-10-16T01:19:26;2.40;;;2.20;;
25049;SDS011;13046;49.814;9.918;2022-10-16T01:21:57;3.88;;;1.90;;
25049;SDS011;13046;49.814;9.918;2022-10-16T01:24:32;4.28;;;2.03;;
25049;SDS011;13046;49.814;9.918;2022-10-16T01:27:12;2.28;;;2.10;;
25049;SDS011;13046;49.814;9.918;2022-10-16T01:34:52;2.47;;;1.00;;
25049;SDS011;13046;49.814;9.918;2022-10-16T01:37:36;1.75;;;1.55;;
25049;SDS011;13046;49.814;9.918;2022-10-16T01:40:09;1.33;;;1.23;;
25049;SDS011;13046;49.814;9.918;2022-10-16T01:42:44;1.27;;;1.02;;
25049;SDS011;13046;49.814;9.918;2022-10-16T01:45:12;3.17;;;0.90;;
25049;SDS011;13046;49.814;9.918;2022-10-16T01:47:39;1.60;;;1.10;;
25049;SDS011;13046;49.814;9.918;2022-10-16T01:50:06;1.52;;;0.80;;
25049;SDS011;13046;49.814;9.918;2022-10-16T01:52:37;4.00;;;1.08;;
25049;SDS011;13046;49.814;9.918;2022-10-16T01:55:04;1.67;;;1.13;;
25049;SDS011;13046;49.814;9.918;2022-10-16T01:57:32;1.95;;;1.20;;
25049;SDS011;13046;49.814;9.918;2022-10-16T02:00:01;1.48;;;1.38;;
25049;SDS011;13046;49.814;9.918;2022-10-16T02:02:37;2.10;;;1.23;;
25049;SDS011;13046;49.814;9.918;2022-10-16T02:05:10;5.85;;;1.25;;
25049;SDS011;13046;49.814;9.918;2022-10-16T02:07:39;1.50;;;1.20;;
25049;SDS011;13046;49.814;9.918;2022-10-16T02:10:07;0.93;;;0.93;;
25049;SDS011;13046;49.814;9.918;2022-10-16T02:12:33;2.08;;;1.10;;
25049;SDS011;13046;49.814;9.918;2022-10-16T02:15:02;1.83;;;1.08;;
25049;SDS011;13046;49.814;9.918;2022-10-16T02:17:28;2.42;;;1.48;;
25049;SDS011;13046;49.814;9.918;2022-10-16T02:19:54;2.45;;;1.40;;
25049;SDS011;13046;49.814;9.918;2022-10-16T02:22:28;1.48;;;1.20;;
25049;SDS011;13046;49.814;9.918;2022-10-16T02:25:03;2.60;;;1.20;;
25049;SDS011;13046;49.814;9.918;2022-10-16T02:27:33;5.45;;;1.17;;
25049;SDS011;13046;49.814;9.918;2022-10-16T02:30:12;3.05;;;1.30;;
25049;SDS011;13046;49.814;9.918;2022-10-16T02:32:39;1.30;;;1.20;;
25049;SDS011;13046;49.814;9.918;2022-10-16T02:35:06;1.60;;;1.38;;
25049;SDS011;13046;49.814;9.918;2022-10-16T02:37:33;1.40;;;1.30;;
25049;SDS011;13046;49.814;9.918;2022-10-16T02:39:59;1.83;;;1.15;;
25049;SDS011;13046;49.814;9.918;2022-10-16T02:42:31;1.92;;;1.40;;
25049;SDS011;13046;49.814;9.918;2022-10-16T02:44:59;1.42;;;1.33;;
25049;SDS011;13046;49.814;9.918;2022-10-16T02:47:25;1.20;;;1.10;;
25049;SDS011;13046;49.814;9.918;2022-10-16T02:49:51;5.80;;;1.63;;
25049;SDS011;13046;49.814;9.918;2022-10-16T02:52:17;1.38;;;1.20;;
25049;SDS011;13046;49.814;9.918;2022-10-16T02:54:43;1.90;;;1.33;;
25049;SDS011;13046;49.814;9.918;2022-10-16T02:57:09;1.63;;;1.50;;
25049;SDS011;13046;49.814;9.918;2022-10-16T02:59:35;2.08;;;1.25;;
25049;SDS011;13046;49.814;9.918;2022-10-16T03:02:01;1.88;;;1.77;;
25049;SDS011;13046;49.814;9.918;2022-10-16T03:04:27;5.85;;;1.65;;
25049;SDS011;13046;49.814;9.918;2022-10-16T03:06:53;2.55;;;2.00;;
25049;SDS011;13046;49.814;9.918;2022-10-16T03:09:19;3.95;;;1.83;;
25049;SDS011;13046;49.814;9.918;2022-10-16T03:11:45;2.75;;;2.03;;
25049;SDS011;13046;49.814;9.918;2022-10-16T03:14:11;2.40;;;2.05;;
25049;SDS011;13046;49.814;9.918;2022-10-16T03:16:37;3.30;;;1.85;;
25049;SDS011;13046;49.814;9.918;2022-10-16T03:19:03;1.80;;;1.70;;
25049;SDS011;13046;49.814;9.918;2022-10-16T03:21:29;2.28;;;2.00;;
25049;SDS011;13046;49.814;9.918;2022-10-16T03:23:55;1.80;;;1.70;;
25049;SDS011;13046;49.814;9.918;2022-10-16T03:26:21;1.65;;;1.55;;
25049;SDS011;13046;49.814;9.918;2022-10-16T03:28:47;3.17;;;2.88;;
25049;SDS011;13046;49.814;9.918;2022-10-16T03:31:13;5.60;;;2.00;;
25049;SDS011;13046;49.814;9.918;2022-10-16T03:33:39;2.22;;;1.50;;
25049;SDS011;13046;49.814;9.918;2022-10-16T03:36:06;1.90;;;1.80;;
25049;SDS011;13046;49.814;9.918;2022-10-16T03:38:32;2.35;;;1.92;;
25049;SDS011;13046;49.814;9.918;2022-10-16T03:40:58;2.15;;;2.00;;
25049;SDS011;13046;49.814;9.918;2022-10-16T03:43:24;4.38;;;2.00;;
25049;SDS011;13046;49.814;9.918;2022-10-16T03:45:50;3.05;;;2.50;;
25049;SDS011;13046;49.814;9.918;2022-10-16T03:48:17;2.70;;;2.50;;
25049;SDS011;13046;49.814;9.918;2022-10-16T03:50:43;2.40;;;2.05;;
25049;SDS011;13046;49.814;9.918;2022-10-16T03:53:09;4.95;;;2.47;;
25049;SDS011;13046;49.814;9.918;2022-10-16T03:55:35;3.70;;;2.08;;
25049;SDS011;13046;49.814;9.918;2022-10-16T03:58:01;3.78;;;2.28;;
25049;SDS011;13046;49.814;9.918;2022-10-16T04:00:27;4.13;;;2.28;;
25049;SDS011;13046;49.814;9.918;2022-10-16T04:02:53;3.58;;;2.47;;
25049;SDS011;13046;49.814;9.918;2022-10-16T04:05:19;2.95;;;2.10;;
25049;SDS011;13046;49.814;9.918;2022-10-16T04:07:45;3.33;;;3.03;;
25049;SDS011;13046;49.814;9.918;2022-10-16T04:10:11;5.60;;;2.83;;
25049;SDS011;13046;49.814;9.918;2022-10-16T04:12:38;4.15;;;3.10;;
25049;SDS011;13046;49.814;9.918;2022-10-16T04:15:04;3.03;;;2.83;;
25049;SDS011;13046;49.814;9.918;2022-10-16T04:17:30;8.48;;;4.68;;
25049;SDS011;13046;49.814;9.918;2022-10-16T04:19:56;4.88;;;3.83;;
25049;SDS011;13046;49.814;9.918;2022-10-16T04:22:22;5.53;;;3.72;;
25049;SDS011;13046;49.814;9.918;2022-10-16T04:24:48;5.22;;;3.75;;
25049;SDS011;13046;49.814;9.918;2022-10-16T04:27:14;6.95;;;4.18;;
25049;SDS011;13046;49.814;9.918;2022-10-16T04:29:40;4.30;;;3.92;;
25049;SDS011;13046;49.814;9.918;2022-10-16T04:32:07;11.77;;;4.95;;
25049;SDS011;13046;49.814;9.918;2022-10-16T04:34:33;6.00;;;3.80;;
25049;SDS011;13046;49.814;9.918;2022-10-16T04:36:59;4.32;;;3.97;;
25049;SDS011;13046;49.814;9.918;2022-10-16T04:39:25;4.18;;;3.50;;
25049;SDS011;13046;49.814;9.918;2022-10-16T04:41:51;5.60;;;4.45;;
25049;SDS011;13046;49.814;9.918;2022-10-16T04:44:17;4.60;;;3.90;;
25049;SDS011;13046;49.814;9.918;2022-10-16T04:46:43;4.05;;;3.70;;
25049;SDS011;13046;49.814;9.918;2022-10-16T04:49:09;7.07;;;4.07;;
25049;SDS011;13046;49.814;9.918;2022-10-16T04:51:35;5.38;;;4.25;;
25049;SDS011;13046;49.814;9.918;2022-10-16T04:54:01;4.00;;;3.58;;
25049;SDS011;13046;49.814;9.918;2022-10-16T04:56:27;4.88;;;3.72;;
25049;SDS011;13046;49.814;9.918;2022-10-16T04:58:53;9.20;;;4.05;;
25049;SDS011;13046;49.814;9.918;2022-10-16T05:01:20;4.40;;;3.90;;
25049;SDS011;13046;49.814;9.918;2022-10-16T05:03:46;6.00;;;3.03;;
25049;SDS011;13046;49.814;9.918;2022-10-16T05:06:12;7.28;;;3.88;;
25049;SDS011;13046;49.814;9.918;2022-10-16T05:08:38;4.68;;;3.22;;
25049;SDS011;13046;49.814;9.918;2022-10-16T05:11:04;4.30;;;3.33;;
25049;SDS011;13046;49.814;9.918;2022-10-16T05:13:30;13.77;;;4.18;;
25049;SDS011;13046;49.814;9.918;2022-10-16T05:15:56;4.22;;;3.80;;
25049;SDS011;13046;49.814;9.918;2022-10-16T05:18:22;5.78;;;3.95;;
25049;SDS011;13046;49.814;9.918;2022-10-16T05:20:48;4.03;;;3.58;;
25049;SDS011;13046;49.814;9.918;2022-10-16T05:23:14;6.13;;;3.55;;
25049;SDS011;13046;49.814;9.918;2022-10-16T05:25:40;5.10;;;3.65;;
25049;SDS011;13046;49.814;9.918;2022-10-16T05:28:06;9.43;;;3.60;;
25049;SDS011;13046;49.814;9.918;2022-10-16T05:30:32;5.25;;;3.38;;
25049;SDS011;13046;49.814;9.918;2022-10-16T05:32:58;4.80;;;3.88;;
25049;SDS011;13046;49.814;9.918;2022-10-16T05:35:24;4.25;;;3.75;;
25049;SDS011;13046;49.814;9.918;2022-10-16T05:37:50;7.28;;;3.17;;
25049;SDS011;13046;49.814;9.918;2022-10-16T05:40:16;5.55;;;4.65;;
25049;SDS011;13046;49.814;9.918;2022-10-16T05:42:42;6.10;;;3.78;;
25049;SDS011;13046;49.814;9.918;2022-10-16T05:45:09;5.22;;;4.18;;
25049;SDS011;13046;49.814;9.918;2022-10-16T05:47:36;7.30;;;4.85;;
25049;SDS011;13046;49.814;9.918;2022-10-16T05:50:02;5.40;;;4.90;;
25049;SDS011;13046;49.814;9.918;2022-10-16T05:52:29;6.47;;;5.43;;
25049;SDS011;13046;49.814;9.918;2022-10-16T05:54:55;6.38;;;5.45;;
25049;SDS011;13046;49.814;9.918;2022-10-16T05:57:21;5.97;;;5.18;;
25049;SDS011;13046;49.814;9.918;2022-10-16T05:59:47;5.85;;;5.22;;
25049;SDS011;13046;49.814;9.918;2022-10-16T06:02:13;5.95;;;5.47;;
25049;SDS011;13046;49.814;9.918;2022-10-16T06:04:39;10.60;;;7.63;;
25049;SDS011;13046;49.814;9.918;2022-10-16T06:07:06;8.43;;;7.65;;
25049;SDS011;13046;49.814;9.918;2022-10-16T06:09:32;10.80;;;6.60;;
25049;SDS011;13046;49.814;9.918;2022-10-16T06:11:58;9.18;;;7.53;;
25049;SDS011;13046;49.814;9.918;2022-10-16T06:14:24;6.43;;;4.78;;
25049;SDS011;13046;49.814;9.918;2022-10-16T06:16:52;10.73;;;7.53;;
25049;SDS011;13046;49.814;9.918;2022-10-16T06:19:18;8.80;;;8.02;;
25049;SDS011;13046;49.814;9.918;2022-10-16T06:21:44;9.68;;;6.47;;
25049;SDS011;13046;49.814;9.918;2022-10-16T06:24:10;8.20;;;7.10;;
25049;SDS011;13046;49.814;9.918;2022-10-16T06:26:36;7.38;;;6.20;;
25049;SDS011;13046;49.814;9.918;2022-10-16T06:29:03;6.95;;;6.22;;
25049;SDS011;13046;49.814;9.918;2022-10-16T06:31:29;8.18;;;7.38;;
25049;SDS011;13046;49.814;9.918;2022-10-16T06:33:58;9.85;;;6.57;;
25049;SDS011;13046;49.814;9.918;2022-10-16T06:36:25;8.65;;;5.43;;
25049;SDS011;13046;49.814;9.918;2022-10-16T06:38:51;5.97;;;4.82;;
25049;SDS011;13046;49.814;9.918;2022-10-16T06:41:18;4.70;;;3.08;;
25049;SDS011;13046;49.814;9.918;2022-10-16T06:43:46;7.78;;;4.57;;
25049;SDS011;13046;49.814;9.918;2022-10-16T06:46:13;8.20;;;5.32;;
25049;SDS011;13046;49.814;9.918;2022-10-16T06:48:40;5.82;;;4.30;;
25049;SDS011;13046;49.814;9.918;2022-10-16T06:51:08;6.43;;;3.95;;
25049;SDS011;13046;49.814;9.918;2022-10-16T06:53:34;9.95;;;5.88;;
25049;SDS011;13046;49.814;9.918;2022-10-16T06:56:07;8.32;;;4.65;;
25049;SDS011;13046;49.814;9.918;2022-10-16T06:58:33;9.63;;;7.70;;
25049;SDS011;13046;49.814;9.918;2022-10-16T07:00:59;7.25;;;6.65;;
25049;SDS011;13046;49.814;9.918;2022-10-16T07:03:25;8.25;;;4.22;;
25049;SDS011;13046;49.814;9.918;2022-10-16T07:05:51;5.82;;;4.13;;
25049;SDS011;13046;49.814;9.918;2022-10-16T07:08:18;8.93;;;4.28;;
25049;SDS011;13046;49.814;9.918;2022-10-16T07:10:44;6.28;;;3.92;;
25049;SDS011;13046;49.814;9.918;2022-10-16T07:13:10;5.15;;;4.65;;
25049;SDS011;13046;49.814;9.918;2022-10-16T07:15:38;10.38;;;4.38;;
25049;SDS011;13046;49.814;9.918;2022-10-16T07:18:04;5.68;;;4.38;;
25049;SDS011;13046;49.814;9.918;2022-10-16T07:20:30;7.05;;;6.45;;
25049;SDS011;13046;49.814;9.918;2022-10-16T07:22:56;6.75;;;5.25;;
25049;SDS011;13046;49.814;9.918;2022-10-16T07:25:22;6.53;;;4.50;;
25049;SDS011;13046;49.814;9.918;2022-10-16T07:27:48;5.10;;;4.28;;
25049;SDS011;13046;49.814;9.918;2022-10-16T07:30:15;7.38;;;4.82;;
25049;SDS011;13046;49.814;9.918;2022-10-16T07:32:41;5.82;;;4.85;;
25049;SDS011;13046;49.814;9.918;2022-10-16T07:35:07;7.63;;;5.63;;
25049;SDS011;13046;49.814;9.918;2022-10-16T07:37:33;6.97;;;5.15;;
25049;SDS011;13046;49.814;9.918;2022-10-16T07:39:59;7.82;;;6.45;;
25049;SDS011;13046;49.814;9.918;2022-10-16T07:42:25;13.95;;;7.63;;
25049;SDS011;13046;49.814;9.918;2022-10-16T07:44:51;6.90;;;5.63;;
25049;SDS011;13046;49.814;9.918;2022-10-16T07:47:17;10.15;;;7.13;;
25049;SDS011;13046;49.814;9.918;2022-10-16T07:49:43;8.27;;;5.35;;
25049;SDS011;13046;49.814;9.918;2022-10-16T07:52:09;7.05;;;5.03;;
25049;SDS011;13046;49.814;9.918;2022-10-16T07:54:35;10.32;;;6.63;;
25049;SDS011;13046;49.814;9.918;2022-10-16T07:57:01;10.07;;;6.18;;
25049;SDS011;13046;49.814;9.918;2022-10-16T07:59:27;5.25;;;4.05;;
25049;SDS011;13046;49.814;9.918;2022-10-16T08:01:53;7.20;;;4.90;;
25049;SDS011;13046;49.814;9.918;2022-10-16T08:04:19;5.63;;;4.38;;
25049;SDS011;13046;49.814;9.918;2022-10-16T08:06:45;4.68;;;3.85;;
25049;SDS011;13046;49.814;9.918;2022-10-16T08:09:11;5.20;;;4.05;;
25049;SDS011;13046;49.814;9.918;2022-10-16T08:11:37;5.40;;;3.92;;
25049;SDS011;13046;49.814;9.918;2022-10-16T08:14:03;6.82;;;5.35;;
25049;SDS011;13046;49.814;9.918;2022-10-16T08:16:30;5.82;;;4.13;;
25049;SDS011;13046;49.814;9.918;2022-10-16T08:18:56;6.28;;;4.18;;
25049;SDS011;13046;49.814;9.918;2022-10-16T08:21:22;5.68;;;4.72;;
25049;SDS011;13046;49.814;9.918;2022-10-16T08:23:49;5.22;;;4.72;;
25049;SDS011;13046;49.814;9.918;2022-10-16T08:29:52;8.55;;;3.15;;
25049;SDS011;13046;49.814;9.918;2022-10-16T08:32:18;5.40;;;3.58;;
25049;SDS011;13046;49.814;9.918;2022-10-16T08:34:44;9.35;;;3.40;;
25049;SDS011;13046;49.814;9.918;2022-10-16T08:37:10;5.63;;;3.90;;
25049;SDS011;13046;49.814;9.918;2022-10-16T08:39:38;8.20;;;2.90;;
25049;SDS011;13046;49.814;9.918;2022-10-16T08:42:07;6.97;;;3.33;;
25049;SDS011;13046;49.814;9.918;2022-10-16T08:49:32;5.97;;;3.83;;
25049;SDS011;13046;49.814;9.918;2022-10-16T08:51:58;5.95;;;3.28;;
25049;SDS011;13046;49.814;9.918;2022-10-16T08:54:32;5.13;;;3.17;;
25049;SDS011;13046;49.814;9.918;2022-10-16T08:57:12;3.90;;;3.10;;
25049;SDS011;13046;49.814;9.918;2022-10-16T08:59:39;3.08;;;2.78;;
25049;SDS011;13046;49.814;9.918;2022-10-16T09:20:18;2.58;;;2.38;;
25049;SDS011;13046;49.814;9.918;2022-10-16T09:22:45;2.60;;;2.40;;
25049;SDS011;13046;49.814;9.918;2022-10-16T09:25:15;4.72;;;2.90;;
25049;SDS011;13046;49.814;9.918;2022-10-16T09:27:42;5.43;;;3.47;;
25049;SDS011;13046;49.814;9.918;2022-10-16T09:30:13;4.75;;;3.38;;
25049;SDS011;13046;49.814;9.918;2022-10-16T09:32:40;3.53;;;3.17;;
25049;SDS011;13046;49.814;9.918;2022-10-16T09:35:11;4.30;;;3.78;;
25049;SDS011;13046;49.814;9.918;2022-10-16T09:37:38;3.20;;;2.78;;
25049;SDS011;13046;49.814;9.918;2022-10-16T09:40:05;4.40;;;4.00;;
25049;SDS011;13046;49.814;9.918;2022-10-16T09:42:32;6.95;;;3.53;;
25049;SDS011;13046;49.814;9.918;2022-10-16T09:45:00;9.20;;;3.72;;
25049;SDS011;13046;49.814;9.918;2022-10-16T09:47:27;8.30;;;4.10;;
25049;SDS011;13046;49.814;9.918;2022-10-16T09:49:58;4.80;;;2.70;;
25049;SDS011;13046;49.814;9.918;2022-10-16T09:52:32;6.03;;;3.63;;
25049;SDS011;13046;49.814;9.918;2022-10-16T09:55:17;7.57;;;2.95;;
25049;SDS011;13046;49.814;9.918;2022-10-16T09:57:50;4.03;;;3.00;;
25049;SDS011;13046;49.814;9.918;2022-10-16T10:00:17;3.22;;;2.92;;
25049;SDS011;13046;49.814;9.918;2022-10-16T10:02:44;4.25;;;3.25;;
25049;SDS011;13046;49.814;9.918;2022-10-16T10:05:21;5.18;;;3.22;;
25049;SDS011;13046;49.814;9.918;2022-10-16T10:07:52;6.50;;;4.50;;
25049;SDS011;13046;49.814;9.918;2022-10-16T10:10:20;3.78;;;2.80;;
25049;SDS011;13046;49.814;9.918;2022-10-16T10:12:53;3.67;;;3.33;;
25049;SDS011;13046;49.814;9.918;2022-10-16T10:16:11;5.65;;;3.00;;
25049;SDS011;13046;49.814;9.918;2022-10-16T10:19:27;18.23;;;5.03;;
25049;SDS011;13046;49.814;9.918;2022-10-16T10:21:57;4.13;;;3.72;;
25049;SDS011;13046;49.814;9.918;2022-10-16T10:24:23;3.88;;;3.53;;
25049;SDS011;13046;49.814;9.918;2022-10-16T10:27:06;5.68;;;3.85;;
25049;SDS011;13046;49.814;9.918;2022-10-16T10:37:49;4.35;;;3.95;;
25049;SDS011;13046;49.814;9.918;2022-10-16T10:45:21;6.25;;;3.53;;
25049;SDS011;13046;49.814;9.918;2022-10-16T10:50:24;5.40;;;3.50;;
25049;SDS011;13046;49.814;9.918;2022-10-16T10:55:27;4.00;;;3.35;;
25049;SDS011;13046;49.814;9.918;2022-10-16T11:00:54;3.75;;;2.88;;
25049;SDS011;13046;49.814;9.918;2022-10-16T11:08:38;4.15;;;2.60;;
25049;SDS011;13046;49.814;9.918;2022-10-16T11:11:09;4.05;;;2.92;;
25049;SDS011;13046;49.814;9.918;2022-10-16T11:13:42;3.85;;;2.38;;
25049;SDS011;13046;49.814;9.918;2022-10-16T11:16:17;5.90;;;2.28;;
25049;SDS011;13046;49.814;9.918;2022-10-16T11:21:20;4.63;;;2.60;;
25049;SDS011;13046;49.814;9.918;2022-10-16T11:23:53;2.30;;;2.10;;
25049;SDS011;13046;49.814;9.918;2022-10-16T11:26:20;4.65;;;2.58;;
25049;SDS011;13046;49.814;9.918;2022-10-16T11:28:51;3.95;;;2.25;;
25049;SDS011;13046;49.814;9.918;2022-10-16T11:34:05;2.47;;;2.22;;
25049;SDS011;13046;49.814;9.918;2022-10-16T11:36:51;4.40;;;2.45;;
25049;SDS011;13046;49.814;9.918;2022-10-16T11:39:28;3.20;;;2.42;;
25049;SDS011;13046;49.814;9.918;2022-10-16T11:42:10;2.95;;;2.10;;
25049;SDS011;13046;49.814;9.918;2022-10-16T11:49:36;2.63;;;2.42;;
25049;SDS011;13046;49.814;9.918;2022-10-16T11:52:07;2.90;;;2.33;;
25049;SDS011;13046;49.814;9.918;2022-10-16T11:59:46;3.67;;;2.05;;
25049;SDS011;13046;49.814;9.918;2022-10-16T12:05:01;2.40;;;2.20;;
25049;SDS011;13046;49.814;9.918;2022-10-16T12:07:38;5.38;;;2.38;;
25049;SDS011;13046;49.814;9.918;2022-10-16T12:10:09;5.28;;;2.22;;
25049;SDS011;13046;49.814;9.918;2022-10-16T12:17:43;2.47;;;1.70;;
25049;SDS011;13046;49.814;9.918;2022-10-16T12:22:56;1.65;;;1.55;;
25049;SDS011;13046;49.814;9.918;2022-10-16T12:25:24;4.15;;;2.08;;
25049;SDS011;13046;49.814;9.918;2022-10-16T12:28:25;2.63;;;1.60;;
25049;SDS011;13046;49.814;9.918;2022-10-16T12:30:51;3.85;;;1.73;;
25049;SDS011;13046;49.814;9.918;2022-10-16T12:33:25;2.40;;;1.58;;
25049;SDS011;13046;49.814;9.918;2022-10-16T12:35:52;4.03;;;1.50;;
25049;SDS011;13046;49.814;9.918;2022-10-16T12:41:01;2.05;;;1.67;;
25049;SDS011;13046;49.814;9.918;2022-10-16T12:43:37;2.83;;;2.17;;
25049;SDS011;13046;49.814;9.918;2022-10-16T12:46:33;4.15;;;1.83;;
25049;SDS011;13046;49.814;9.918;2022-10-16T12:48:50;1.90;;;1.58;;
25049;SDS011;13046;49.814;9.918;2022-10-16T12:51:34;3.47;;;1.70;;
25049;SDS011;13046;49.814;9.918;2022-10-16T12:54:09;3.75;;;1.92;;
25049;SDS011;13046;49.814;9.918;2022-10-16T12:59:13;2.53;;;1.92;;
25049;SDS011;13046;49.814;9.918;2022-10-16T13:01:52;3.25;;;2.00;;
25049;SDS011;13046;49.814;9.918;2022-10-16T13:04:36;6.97;;;2.10;;
25049;SDS011;13046;49.814;9.918;2022-10-16T13:07:15;4.55;;;2.50;;
25049;SDS011;13046;49.814;9.918;2022-10-16T13:09:50;4.30;;;2.17;;
25049;SDS011;13046;49.814;9.918;2022-10-16T13:12:31;2.85;;;1.90;;
25049;SDS011;13046;49.814;9.918;2022-10-16T13:15:19;4.20;;;1.75;;
25049;SDS011;13046;49.814;9.918;2022-10-16T13:17:51;2.53;;;2.38;;
25049;SDS011;13046;49.814;9.918;2022-10-16T13:20:21;1.98;;;1.70;;
25049;SDS011;13046;49.814;9.918;2022-10-16T13:30:26;3.72;;;1.90;;
25049;SDS011;13046;49.814;9.918;2022-10-16T13:35:32;5.03;;;2.63;;
25049;SDS011;13046;49.814;9.918;2022-10-16T13:40:24;8.75;;;6.43;;
25049;SDS011;13046;49.814;9.918;2022-10-16T13:42:51;3.83;;;1.83;;
25049;SDS011;13046;49.814;9.918;2022-10-16T13:45:19;2.63;;;1.98;;
25049;SDS011;13046;49.814;9.918;2022-10-16T13:47:45;4.43;;;1.75;;
25049;SDS011;13046;49.814;9.918;2022-10-16T13:50:12;8.75;;;2.22;;
25049;SDS011;13046;49.814;9.918;2022-10-16T13:52:38;4.60;;;2.35;;
25049;SDS011;13046;49.814;9.918;2022-10-16T13:55:10;7.50;;;3.30;;
25049;SDS011;13046;49.814;9.918;2022-10-16T13:57:36;4.28;;;3.30;;
25049;SDS011;13046;49.814;9.918;2022-10-16T14:00:02;5.72;;;2.88;;
25049;SDS011;13046;49.814;9.918;2022-10-16T14:02:31;6.28;;;2.33;;
25049;SDS011;13046;49.814;9.918;2022-10-16T14:05:00;5.20;;;2.50;;
25049;SDS011;13046;49.814;9.918;2022-10-16T14:07:28;5.95;;;2.95;;
25049;SDS011;13046;49.814;9.918;2022-10-16T14:09:54;7.03;;;2.47;;
25049;SDS011;13046;49.814;9.918;2022-10-16T14:12:21;3.38;;;2.15;;
25049;SDS011;13046;49.814;9.918;2022-10-16T14:14:48;6.00;;;2.20;;
25049;SDS011;13046;49.814;9.918;2022-10-16T14:17:15;2.90;;;2.17;;
25049;SDS011;13046;49.814;9.918;2022-10-16T14:19:47;3.85;;;1.95;;
25049;SDS011;13046;49.814;9.918;2022-10-16T14:22:30;3.78;;;2.45;;
25049;SDS011;13046;49.814;9.918;2022-10-16T14:24:58;5.00;;;3.20;;
25049;SDS011;13046;49.814;9.918;2022-10-16T14:27:34;4.40;;;3.00;;
25049;SDS011;13046;49.814;9.918;2022-10-16T14:32:40;4.50;;;1.95;;
25049;SDS011;13046;49.814;9.918;2022-10-16T14:35:22;2.17;;;2.08;;
25049;SDS011;13046;49.814;9.918;2022-10-16T14:37:51;4.40;;;3.42;;
25049;SDS011;13046;49.814;9.918;2022-10-16T14:40:17;5.80;;;2.30;;
25049;SDS011;13046;49.814;9.918;2022-10-16T14:42:44;5.00;;;3.38;;
25049;SDS011;13046;49.814;9.918;2022-10-16T14:45:17;10.77;;;6.28;;
25049;SDS011;13046;49.814;9.918;2022-10-16T14:47:48;5.55;;;3.95;;
25049;SDS011;13046;49.814;9.918;2022-10-16T14:50:15;3.78;;;3.40;;
25049;SDS011;13046;49.814;9.918;2022-10-16T14:52:41;5.15;;;4.38;;
25049;SDS011;13046;49.814;9.918;2022-10-16T14:55:09;4.50;;;3.35;;
25049;SDS011;13046;49.814;9.918;2022-10-16T14:57:35;4.10;;;3.80;;
25049;SDS011;13046;49.814;9.918;2022-10-16T15:00:03;6.10;;;3.25;;
25049;SDS011;13046;49.814;9.918;2022-10-16T15:02:31;7.38;;;6.78;;
25049;SDS011;13046;49.814;9.918;2022-10-16T15:04:57;10.93;;;6.78;;
25049;SDS011;13046;49.814;9.918;2022-10-16T15:07:24;9.27;;;6.93;;
25049;SDS011;13046;49.814;9.918;2022-10-16T15:09:50;6.22;;;5.45;;
25049;SDS011;13046;49.814;9.918;2022-10-16T15:12:16;4.00;;;3.63;;
25049;SDS011;13046;49.814;9.918;2022-10-16T15:14:42;9.20;;;3.88;;
25049;SDS011;13046;49.814;9.918;2022-10-16T15:17:10;6.22;;;3.90;;
25049;SDS011;13046;49.814;9.918;2022-10-16T15:19:36;5.07;;;4.18;;
25049;SDS011;13046;49.814;9.918;2022-10-16T15:22:02;9.32;;;4.07;;
25049;SDS011;13046;49.814;9.918;2022-10-16T15:24:30;6.57;;;4.65;;
25049;SDS011;13046;49.814;9.918;2022-10-16T15:26:56;15.77;;;14.45;;
25049;SDS011;13046;49.814;9.918;2022-10-16T15:29:22;8.30;;;6.53;;
25049;SDS011;13046;49.814;9.918;2022-10-16T15:31:48;5.28;;;4.78;;
25049;SDS011;13046;49.814;9.918;2022-10-16T15:34:15;6.07;;;3.92;;
25049;SDS011;13046;49.814;9.918;2022-10-16T15:36:43;9.52;;;4.57;;
25049;SDS011;13046;49.814;9.918;2022-10-16T15:39:14;5.55;;;3.95;;
25049;SDS011;13046;49.814;9.918;2022-10-16T15:41:40;16.42;;;11.98;;
25049;SDS011;13046;49.814;9.918;2022-10-16T15:44:06;8.32;;;6.60;;
25049;SDS011;13046;49.814;9.918;2022-10-16T15:46:33;8.18;;;6.53;;
25049;SDS011;13046;49.814;9.918;2022-10-16T15:48:59;11.20;;;9.73;;
25049;SDS011;13046;49.814;9.918;2022-10-16T15:51:26;9.60;;;8.85;;
25049;SDS011;13046;49.814;9.918;2022-10-16T15:53:55;19.55;;;9.85;;
25049;SDS011;13046;49.814;9.918;2022-10-16T15:56:22;9.05;;;8.23;;
25049;SDS011;13046;49.814;9.918;2022-10-16T15:58:50;8.48;;;5.43;;
25049;SDS011;13046;49.814;9.918;2022-10-16T16:01:16;5.35;;;3.83;;
25049;SDS011;13046;49.814;9.918;2022-10-16T16:03:42;7.57;;;4.45;;
25049;SDS011;13046;49.814;9.918;2022-10-16T16:06:10;6.30;;;5.70;;
25049;SDS011;13046;49.814;9.918;2022-10-16T16:08:37;6.50;;;4.70;;
25049;SDS011;13046;49.814;9.918;2022-10-16T16:11:08;6.00;;;4.07;;
25049;SDS011;13046;49.814;9.918;2022-10-16T16:13:34;10.50;;;4.15;;
25049;SDS011;13046;49.814;9.918;2022-10-16T16:16:04;11.82;;;5.88;;
25049;SDS011;13046;49.814;9.918;2022-10-16T16:18:31;4.15;;;3.70;;
25049;SDS011;13046;49.814;9.918;2022-10-16T16:20:57;12.10;;;4.07;;
25049;SDS011;13046;49.814;9.918;2022-10-16T16:23:23;9.25;;;4.03;;
25049;SDS011;13046;49.814;9.918;2022-10-16T16:26:03;8.93;;;5.55;;
25049;SDS011;13046;49.814;9.918;2022-10-16T16:28:29;11.48;;;5.53;;
25049;SDS011;13046;49.814;9.918;2022-10-16T16:30:55;6.45;;;4.88;;
25049;SDS011;13046;49.814;9.918;2022-10-16T16:33:21;8.57;;;5.75;;
25049;SDS011;13046;49.814;9.918;2022-10-16T16:35:48;7.80;;;6.00;;
25049;SDS011;13046;49.814;9.918;2022-10-16T16:41:12;7.82;;;5.30;;
25049;SDS011;13046;49.814;9.918;2022-10-16T16:43:38;4.38;;;3.88;;
25049;SDS011;13046;49.814;9.918;2022-10-16T16:46:04;7.53;;;4.15;;
25049;SDS011;13046;49.814;9.918;2022-10-16T16:48:31;5.82;;;4.10;;
25049;SDS011;13046;49.814;9.918;2022-10-16T16:51:02;5.28;;;3.70;;